createdAt,value
2017-08-26T00:00:27.176Z,23.90
2017-08-26T00:01:27.079Z,23.87
2017-08-26T00:02:27.031Z,23.89
2017-08-26T00:03:27.022Z,23.94
2017-08-26T00:04:27.056Z,23.83
2017-08-26T00:05:27.018Z,23.86
2017-08-26T00:06:27.018Z,23.82
2017-08-26T00:07:26.983Z,23.89
2017-08-26T00:08:26.991Z,23.80
2017-08-26T00:09:27.009Z,23.82
2017-08-26T00:10:27.037Z,23.83
2017-08-26T00:11:27.066Z,23.85
2017-08-26T00:12:26.974Z,23.79
2017-08-26T00:13:27.002Z,23.70
2017-08-26T00:14:26.907Z,23.83
2017-08-26T00:15:26.926Z,23.75
2017-08-26T00:16:26.922Z,23.72
2017-08-26T00:17:26.884Z,23.77
2017-08-26T00:18:26.951Z,23.70
2017-08-26T00:19:26.884Z,23.64
2017-08-26T00:20:26.938Z,23.68
2017-08-26T00:21:26.929Z,23.65
2017-08-26T00:22:26.829Z,23.64
2017-08-26T00:23:26.826Z,23.62
2017-08-26T00:24:26.943Z,23.62
2017-08-26T00:25:26.817Z,23.58
2017-08-26T00:26:26.813Z,23.52
2017-08-26T00:27:26.916Z,23.53
2017-08-26T00:28:26.937Z,23.61
2017-08-26T00:29:26.934Z,23.53
2017-08-26T00:30:26.842Z,23.52
2017-08-26T00:31:26.832Z,23.45
2017-08-26T00:32:26.791Z,23.49
2017-08-26T00:33:26.935Z,23.58
2017-08-26T00:34:26.858Z,23.57
2017-08-26T00:35:26.768Z,23.52
2017-08-26T00:36:26.685Z,23.49
2017-08-26T00:37:26.736Z,23.50
2017-08-26T00:38:26.712Z,23.39
2017-08-26T00:39:26.729Z,23.62
2017-08-26T00:40:26.674Z,23.47
2017-08-26T00:41:26.682Z,23.43
2017-08-26T00:42:26.723Z,23.49
2017-08-26T00:43:26.717Z,23.47
2017-08-26T00:44:26.643Z,23.46
2017-08-26T00:45:26.669Z,23.40
2017-08-26T00:46:26.688Z,23.43
2017-08-26T00:47:26.682Z,23.47
2017-08-26T00:48:26.588Z,23.47
2017-08-26T00:49:26.586Z,23.47
2017-08-26T00:50:26.592Z,23.39
2017-08-26T00:51:26.595Z,23.39
2017-08-26T00:52:26.539Z,23.38
2017-08-26T00:53:26.621Z,23.38
2017-08-26T00:54:26.538Z,23.40
2017-08-26T00:55:26.527Z,23.42
2017-08-26T00:56:26.561Z,23.32
2017-08-26T00:57:26.555Z,23.42
2017-08-26T00:58:26.507Z,23.38
2017-08-26T00:59:26.513Z,23.34
2017-08-26T01:00:26.519Z,23.40
2017-08-26T01:01:26.488Z,23.34
2017-08-26T01:02:26.443Z,23.26
2017-08-26T01:03:26.462Z,23.34
2017-08-26T01:04:26.526Z,23.27
2017-08-26T01:05:26.497Z,23.29
2017-08-26T01:06:26.481Z,23.26
2017-08-26T01:07:26.483Z,23.24
2017-08-26T01:08:26.426Z,23.26
2017-08-26T01:09:26.414Z,23.26
2017-08-26T01:10:26.381Z,23.19
2017-08-26T01:11:26.423Z,23.19
2017-08-26T01:12:26.382Z,23.24
2017-08-26T01:13:26.362Z,23.20
2017-08-26T01:14:26.318Z,23.22
2017-08-26T01:15:26.353Z,23.20
2017-08-26T01:16:26.303Z,23.12
2017-08-26T01:17:26.299Z,23.15
2017-08-26T01:18:26.366Z,23.17
2017-08-26T01:19:26.344Z,23.14
2017-08-26T01:20:26.321Z,23.07
2017-08-26T01:21:26.311Z,23.14
2017-08-26T01:22:26.248Z,23.11
2017-08-26T01:23:26.232Z,23.07
2017-08-26T01:24:26.234Z,23.05
2017-08-26T01:25:26.312Z,23.08
2017-08-26T01:26:26.219Z,23.02
2017-08-26T01:27:26.216Z,23.04
2017-08-26T01:28:26.184Z,23.01
2017-08-26T01:29:26.190Z,23.01
2017-08-26T01:30:26.183Z,22.96
2017-08-26T01:31:26.162Z,22.96
2017-08-26T01:32:26.140Z,22.93
2017-08-26T01:33:26.158Z,22.97
2017-08-26T01:34:26.123Z,22.94
2017-08-26T01:35:26.150Z,22.87
2017-08-26T01:36:26.101Z,23.04
2017-08-26T01:37:26.168Z,22.94
2017-08-26T01:38:26.143Z,22.90
2017-08-26T01:39:26.081Z,22.94
2017-08-26T01:40:26.118Z,22.97
2017-08-26T01:41:26.099Z,22.87
2017-08-26T01:42:26.072Z,22.86
2017-08-26T01:43:26.097Z,22.82
2017-08-26T01:44:26.075Z,22.92
2017-08-26T01:45:26.133Z,22.84
2017-08-26T01:46:26.068Z,22.83
2017-08-26T01:47:26.092Z,22.78
2017-08-26T01:48:25.999Z,22.82
2017-08-26T01:49:26.046Z,22.83
2017-08-26T01:50:26.011Z,22.86
2017-08-26T01:51:25.992Z,22.80
2017-08-26T01:52:26.050Z,22.78
2017-08-26T01:53:25.983Z,22.80
2017-08-26T01:54:25.955Z,22.78
2017-08-26T01:55:26.021Z,22.77
2017-08-26T01:56:25.885Z,22.83
2017-08-26T01:57:25.989Z,22.74
2017-08-26T01:58:25.961Z,22.78
2017-08-26T01:59:25.958Z,22.75
2017-08-26T02:00:25.834Z,22.71
2017-08-26T02:01:25.836Z,22.72
2017-08-26T02:02:25.871Z,22.65
2017-08-26T02:03:25.843Z,22.65
2017-08-26T02:04:25.808Z,22.62
2017-08-26T02:05:25.794Z,22.60
2017-08-26T02:06:25.785Z,22.65
2017-08-26T02:07:25.826Z,22.62
2017-08-26T02:08:25.826Z,22.65
2017-08-26T02:09:25.789Z,22.67
2017-08-26T02:10:25.752Z,22.62
2017-08-26T02:11:25.817Z,22.62
2017-08-26T02:12:25.766Z,22.74
2017-08-26T02:13:25.795Z,22.60
2017-08-26T02:14:25.785Z,22.65
2017-08-26T02:15:25.712Z,22.64
2017-08-26T02:16:25.754Z,22.64
2017-08-26T02:17:25.729Z,22.60
2017-08-26T02:18:25.706Z,22.67
2017-08-26T02:19:25.699Z,22.59
2017-08-26T02:20:25.632Z,22.56
2017-08-26T02:21:25.654Z,22.59
2017-08-26T02:22:25.632Z,22.57
2017-08-26T02:23:25.610Z,22.60
2017-08-26T02:24:25.636Z,22.50
2017-08-26T02:25:25.649Z,22.57
2017-08-26T02:26:25.613Z,22.50
2017-08-26T02:27:25.594Z,22.64
2017-08-26T02:28:25.561Z,22.54
2017-08-26T02:29:25.603Z,22.46
2017-08-26T02:30:25.525Z,22.44
2017-08-26T02:31:25.522Z,22.44
2017-08-26T02:32:25.588Z,22.38
2017-08-26T02:33:25.528Z,22.46
2017-08-26T02:34:25.522Z,22.46
2017-08-26T02:35:25.519Z,22.46
2017-08-26T02:36:25.503Z,22.39
2017-08-26T02:37:25.468Z,22.34
2017-08-26T02:38:25.448Z,22.37
2017-08-26T02:39:25.458Z,22.31
2017-08-26T02:40:25.433Z,22.38
2017-08-26T02:41:25.448Z,22.37
2017-08-26T02:42:25.434Z,22.31
2017-08-26T02:43:25.513Z,22.35
2017-08-26T02:44:25.426Z,22.35
2017-08-26T02:45:25.439Z,22.34
2017-08-26T02:46:25.392Z,22.28
2017-08-26T02:47:25.367Z,22.32
2017-08-26T02:48:25.427Z,22.25
2017-08-26T02:49:25.331Z,22.29
2017-08-26T02:50:25.360Z,22.29
2017-08-26T02:51:25.316Z,22.19
2017-08-26T02:52:25.388Z,22.31
2017-08-26T02:53:25.319Z,22.28
2017-08-26T02:54:25.344Z,22.20
2017-08-26T02:55:25.264Z,22.17
2017-08-26T02:56:25.325Z,22.20
2017-08-26T02:57:25.312Z,22.20
2017-08-26T02:58:25.311Z,22.16
2017-08-26T02:59:25.216Z,22.12
2017-08-26T03:00:25.272Z,22.07
2017-08-26T03:01:25.212Z,22.12
2017-08-26T03:02:25.249Z,22.10
2017-08-26T03:03:25.257Z,22.10
2017-08-26T03:04:25.222Z,22.12
2017-08-26T03:05:25.190Z,22.14
2017-08-26T03:06:25.221Z,22.12
2017-08-26T03:07:25.229Z,22.16
2017-08-26T03:08:25.208Z,22.10
2017-08-26T03:09:25.223Z,22.09
2017-08-26T03:10:25.184Z,22.12
2017-08-26T03:11:25.142Z,22.10
2017-08-26T03:12:25.175Z,22.07
2017-08-26T03:13:25.341Z,22.06
2017-08-26T03:14:25.106Z,22.09
2017-08-26T03:15:25.087Z,22.04
2017-08-26T03:16:25.100Z,22.10
2017-08-26T03:17:25.055Z,22.09
2017-08-26T03:18:25.087Z,22.06
2017-08-26T03:19:25.007Z,22.06
2017-08-26T03:20:25.050Z,21.95
2017-08-26T03:21:25.030Z,22.01
2017-08-26T03:22:25.066Z,22.02
2017-08-26T03:23:25.059Z,21.92
2017-08-26T03:24:25.003Z,21.95
2017-08-26T03:25:25.055Z,21.95
2017-08-26T03:26:24.971Z,21.94
2017-08-26T03:27:25.008Z,21.95
2017-08-26T03:28:24.964Z,21.97
2017-08-26T03:29:24.936Z,21.92
2017-08-26T03:30:24.962Z,21.95
2017-08-26T03:31:24.982Z,21.85
2017-08-26T03:32:24.929Z,21.85
2017-08-26T03:33:24.920Z,21.94
2017-08-26T03:34:24.846Z,21.90
2017-08-26T03:35:24.900Z,21.85
2017-08-26T03:36:24.939Z,21.88
2017-08-26T03:37:24.818Z,21.91
2017-08-26T03:38:24.836Z,21.90
2017-08-26T03:39:24.856Z,21.79
2017-08-26T03:40:24.891Z,21.91
2017-08-26T03:41:24.859Z,21.90
2017-08-26T03:42:24.855Z,21.81
2017-08-26T03:43:24.815Z,21.83
2017-08-26T03:44:24.782Z,21.79
2017-08-26T03:45:24.830Z,21.85
2017-08-26T03:46:24.779Z,21.85
2017-08-26T03:47:24.795Z,21.88
2017-08-26T03:48:24.721Z,21.78
2017-08-26T03:49:24.744Z,21.83
2017-08-26T03:50:24.708Z,21.75
2017-08-26T03:51:24.660Z,21.76
2017-08-26T03:52:24.657Z,21.75
2017-08-26T03:53:24.651Z,21.72
2017-08-26T03:54:24.676Z,21.83
2017-08-26T03:55:24.634Z,21.72
2017-08-26T03:56:24.609Z,21.75
2017-08-26T03:57:24.609Z,21.71
2017-08-26T03:58:24.653Z,21.67
2017-08-26T03:59:24.667Z,21.69
2017-08-26T04:00:24.584Z,21.74
2017-08-26T04:01:24.558Z,21.78
2017-08-26T04:02:24.543Z,21.75
2017-08-26T04:03:24.552Z,21.64
2017-08-26T04:04:24.526Z,21.74
2017-08-26T04:05:24.580Z,21.69
2017-08-26T04:06:24.535Z,21.71
2017-08-26T04:07:24.522Z,21.63
2017-08-26T04:08:24.526Z,21.69
2017-08-26T04:09:24.551Z,21.60
2017-08-26T04:10:24.443Z,21.61
2017-08-26T04:11:24.529Z,21.66
2017-08-26T04:12:24.487Z,21.59
2017-08-26T04:13:24.429Z,21.57
2017-08-26T04:14:24.497Z,21.56
2017-08-26T04:15:24.442Z,21.66
2017-08-26T04:16:24.385Z,21.57
2017-08-26T04:17:24.472Z,21.66
2017-08-26T04:18:24.367Z,21.61
2017-08-26T04:19:24.458Z,21.59
2017-08-26T04:20:24.368Z,21.64
2017-08-26T04:21:24.339Z,21.61
2017-08-26T04:22:24.414Z,21.61
2017-08-26T04:23:24.304Z,21.63
2017-08-26T04:24:24.304Z,21.59
2017-08-26T04:25:24.349Z,21.61
2017-08-26T04:26:24.365Z,21.59
2017-08-26T04:27:24.397Z,21.57
2017-08-26T04:28:24.253Z,21.61
2017-08-26T04:29:24.311Z,21.60
2017-08-26T04:30:24.240Z,21.60
2017-08-26T04:31:24.275Z,21.66
2017-08-26T04:32:24.259Z,21.60
2017-08-26T04:33:24.205Z,21.61
2017-08-26T04:34:24.217Z,21.60
2017-08-26T04:35:24.263Z,21.59
2017-08-26T04:36:24.224Z,21.59
2017-08-26T04:37:24.165Z,21.53
2017-08-26T04:38:24.240Z,21.51
2017-08-26T04:39:24.141Z,21.53
2017-08-26T04:40:24.237Z,21.53
2017-08-26T04:41:24.120Z,21.53
2017-08-26T04:42:24.122Z,21.50
2017-08-26T04:43:24.149Z,21.50
2017-08-26T04:44:24.091Z,21.54
2017-08-26T04:45:24.097Z,21.45
2017-08-26T04:46:24.068Z,21.48
2017-08-26T04:47:24.085Z,21.41
2017-08-26T04:48:24.066Z,21.44
2017-08-26T04:49:24.113Z,21.42
2017-08-26T04:50:24.095Z,21.38
2017-08-26T04:51:24.094Z,21.39
2017-08-26T04:52:24.022Z,21.45
2017-08-26T04:53:23.993Z,21.39
2017-08-26T04:54:23.996Z,21.35
2017-08-26T04:55:23.992Z,21.36
2017-08-26T04:56:23.948Z,21.39
2017-08-26T04:57:23.979Z,21.26
2017-08-26T04:58:23.925Z,21.45
2017-08-26T04:59:23.985Z,21.39
2017-08-26T05:00:23.903Z,21.39
2017-08-26T05:01:23.897Z,21.35
2017-08-26T05:02:23.938Z,21.38
2017-08-26T05:03:23.906Z,21.41
2017-08-26T05:04:23.861Z,21.34
2017-08-26T05:05:23.848Z,21.38
2017-08-26T05:06:23.871Z,21.38
2017-08-26T05:07:23.845Z,21.39
2017-08-26T05:08:23.830Z,21.36
2017-08-26T05:09:23.832Z,21.42
2017-08-26T05:10:23.809Z,21.34
2017-08-26T05:11:23.870Z,21.36
2017-08-26T05:12:23.794Z,21.39
2017-08-26T05:13:23.791Z,21.38
2017-08-26T05:14:23.812Z,21.36
2017-08-26T05:15:23.797Z,21.35
2017-08-26T05:16:23.832Z,21.41
2017-08-26T05:17:23.752Z,21.39
2017-08-26T05:18:23.746Z,21.26
2017-08-26T05:19:23.726Z,21.39
2017-08-26T05:20:23.717Z,21.38
2017-08-26T05:21:23.717Z,21.42
2017-08-26T05:22:23.660Z,21.36
2017-08-26T05:23:23.654Z,21.27
2017-08-26T05:24:23.641Z,21.42
2017-08-26T05:25:23.667Z,21.41
2017-08-26T05:26:23.635Z,21.38
2017-08-26T05:27:23.661Z,21.42
2017-08-26T05:28:23.628Z,21.42
2017-08-26T05:29:23.634Z,21.42
2017-08-26T05:30:23.565Z,21.42
2017-08-26T05:31:23.618Z,21.36
2017-08-26T05:32:23.548Z,21.44
2017-08-26T05:33:23.625Z,21.38
2017-08-26T05:34:23.586Z,21.39
2017-08-26T05:35:23.570Z,21.48
2017-08-26T05:36:23.543Z,21.39
2017-08-26T05:37:23.530Z,21.46
2017-08-26T05:38:23.533Z,21.45
2017-08-26T05:39:23.462Z,21.41
2017-08-26T05:40:23.558Z,21.42
2017-08-26T05:41:23.494Z,21.50
2017-08-26T05:42:23.447Z,21.44
2017-08-26T05:43:23.434Z,21.36
2017-08-26T05:44:23.485Z,21.44
2017-08-26T05:45:23.421Z,21.45
2017-08-26T05:46:23.408Z,21.44
2017-08-26T05:47:23.427Z,21.48
2017-08-26T05:48:23.438Z,21.50
2017-08-26T05:49:23.358Z,21.48
2017-08-26T05:50:23.370Z,21.48
2017-08-26T05:51:23.329Z,21.56
2017-08-26T05:52:23.345Z,21.54
2017-08-26T05:53:23.329Z,21.54
2017-08-26T05:54:23.297Z,21.51
2017-08-26T05:55:23.313Z,21.64
2017-08-26T05:56:23.346Z,21.57
2017-08-26T05:57:23.304Z,21.53
2017-08-26T05:58:23.259Z,21.59
2017-08-26T05:59:23.293Z,21.61
2017-08-26T06:00:23.249Z,21.61
2017-08-26T06:01:23.241Z,21.56
2017-08-26T06:02:23.305Z,21.60
2017-08-26T06:03:23.214Z,21.59
2017-08-26T06:04:23.246Z,21.64
2017-08-26T06:05:23.201Z,21.64
2017-08-26T06:06:23.189Z,21.72
2017-08-26T06:07:23.184Z,21.74
2017-08-26T06:08:23.191Z,21.63
2017-08-26T06:09:23.198Z,21.78
2017-08-26T06:10:23.161Z,21.69
2017-08-26T06:11:23.217Z,21.79
2017-08-26T06:12:23.149Z,21.72
2017-08-26T06:13:23.120Z,21.72
2017-08-26T06:14:23.085Z,21.74
2017-08-26T06:15:23.120Z,21.64
2017-08-26T06:16:23.081Z,21.66
2017-08-26T06:17:23.048Z,21.81
2017-08-26T06:18:23.036Z,21.75
2017-08-26T06:19:23.024Z,21.85
2017-08-26T06:20:23.041Z,21.78
2017-08-26T06:21:23.091Z,21.81
2017-08-26T06:22:23.074Z,21.82
2017-08-26T06:23:23.008Z,21.78
2017-08-26T06:24:22.989Z,21.81
2017-08-26T06:25:22.961Z,21.90
2017-08-26T06:26:23.027Z,21.83
2017-08-26T06:27:22.933Z,21.92
2017-08-26T06:28:22.978Z,21.98
2017-08-26T06:29:22.925Z,21.95
2017-08-26T06:30:22.919Z,21.92
2017-08-26T06:31:22.935Z,21.91
2017-08-26T06:32:22.942Z,22.06
2017-08-26T06:33:22.884Z,22.02
2017-08-26T06:34:22.890Z,22.04
2017-08-26T06:35:22.919Z,22.07
2017-08-26T06:36:22.922Z,22.13
2017-08-26T06:37:22.855Z,22.12
2017-08-26T06:38:22.817Z,22.16
2017-08-26T06:39:22.846Z,22.10
2017-08-26T06:40:22.799Z,22.09
2017-08-26T06:41:22.830Z,22.20
2017-08-26T06:42:22.781Z,22.17
2017-08-26T06:43:22.776Z,22.20
2017-08-26T06:44:22.832Z,22.19
2017-08-26T06:45:22.759Z,22.19
2017-08-26T06:46:22.729Z,22.23
2017-08-26T06:47:22.813Z,22.27
2017-08-26T06:48:22.710Z,22.28
2017-08-26T06:49:22.800Z,22.22
2017-08-26T06:50:22.676Z,22.19
2017-08-26T06:51:22.691Z,22.27
2017-08-26T06:52:22.722Z,22.23
2017-08-26T06:53:22.640Z,22.27
2017-08-26T06:54:22.646Z,22.31
2017-08-26T06:55:22.713Z,22.31
2017-08-26T06:56:22.627Z,22.31
2017-08-26T06:57:22.698Z,22.34
2017-08-26T06:58:22.640Z,22.35
2017-08-26T06:59:22.592Z,22.37
2017-08-26T07:00:22.582Z,22.29
2017-08-26T07:01:22.592Z,22.37
2017-08-26T07:02:22.585Z,22.29
2017-08-26T07:03:22.562Z,22.32
2017-08-26T07:04:22.611Z,22.37
2017-08-26T07:05:22.543Z,22.41
2017-08-26T07:06:22.523Z,22.44
2017-08-26T07:07:22.536Z,22.43
2017-08-26T07:08:22.504Z,22.47
2017-08-26T07:09:22.521Z,22.65
2017-08-26T07:10:22.488Z,22.57
2017-08-26T07:11:22.478Z,22.49
2017-08-26T07:12:22.473Z,22.47
2017-08-26T07:13:22.456Z,22.54
2017-08-26T07:14:22.421Z,22.59
2017-08-26T07:15:22.479Z,22.62
2017-08-26T07:16:22.482Z,22.60
2017-08-26T07:17:22.523Z,22.60
2017-08-26T07:18:22.393Z,22.60
2017-08-26T07:19:22.592Z,22.68
2017-08-26T07:20:22.388Z,22.69
2017-08-26T07:21:22.507Z,22.68
2017-08-26T07:22:22.351Z,22.65
2017-08-26T07:23:22.395Z,22.64
2017-08-26T07:24:22.530Z,22.64
2017-08-26T07:25:22.316Z,22.68
2017-08-26T07:26:22.299Z,22.75
2017-08-26T07:27:22.274Z,22.75
2017-08-26T07:28:22.328Z,22.78
2017-08-26T07:29:22.328Z,22.78
2017-08-26T07:30:22.268Z,22.80
2017-08-26T07:31:22.268Z,22.87
2017-08-26T07:32:22.302Z,22.93
2017-08-26T07:33:22.244Z,23.01
2017-08-26T07:34:22.309Z,22.93
2017-08-26T07:35:22.245Z,23.07
2017-08-26T07:36:22.204Z,23.09
2017-08-26T07:37:22.188Z,23.12
2017-08-26T07:38:22.207Z,23.09
2017-08-26T07:39:22.148Z,23.09
2017-08-26T07:40:22.153Z,23.08
2017-08-26T07:41:22.136Z,23.08
2017-08-26T07:42:22.187Z,23.19
2017-08-26T07:43:22.130Z,23.19
2017-08-26T07:44:22.164Z,23.24
2017-08-26T07:45:22.188Z,23.23
2017-08-26T07:46:22.078Z,23.24
2017-08-26T07:47:22.299Z,23.42
2017-08-26T07:48:22.217Z,23.42
2017-08-26T07:49:22.197Z,23.38
2017-08-26T07:50:22.197Z,23.47
2017-08-26T07:51:22.120Z,23.47
2017-08-26T07:52:22.104Z,23.46
2017-08-26T07:53:22.097Z,23.46
2017-08-26T07:54:22.066Z,23.39
2017-08-26T07:55:22.052Z,23.46
2017-08-26T07:56:22.106Z,23.49
2017-08-26T07:57:22.019Z,23.49
2017-08-26T07:58:22.029Z,23.50
2017-08-26T07:59:21.992Z,23.60
2017-08-26T08:00:21.967Z,23.61
2017-08-26T08:01:22.027Z,23.62
2017-08-26T08:02:21.962Z,23.67
2017-08-26T08:03:21.962Z,23.68
2017-08-26T08:04:21.927Z,23.64
2017-08-26T08:05:21.879Z,23.72
2017-08-26T08:06:21.914Z,23.79
2017-08-26T08:07:21.934Z,23.86
2017-08-26T08:08:21.864Z,23.80
2017-08-26T08:09:21.866Z,23.86
2017-08-26T08:10:21.841Z,23.87
2017-08-26T08:11:21.885Z,23.90
2017-08-26T08:12:21.866Z,23.97
2017-08-26T08:13:21.811Z,24.05
2017-08-26T08:14:21.863Z,24.02
2017-08-26T08:15:21.879Z,24.04
2017-08-26T08:16:21.971Z,24.17
2017-08-26T08:17:21.882Z,24.08
2017-08-26T08:18:21.866Z,24.13
2017-08-26T08:19:21.847Z,24.13
2017-08-26T08:20:21.883Z,24.07
2017-08-26T08:21:21.885Z,24.12
2017-08-26T08:22:21.853Z,24.26
2017-08-26T08:23:21.724Z,24.16
2017-08-26T08:24:22.158Z,24.23
2017-08-26T08:25:21.759Z,24.26
2017-08-26T08:26:21.742Z,24.34
2017-08-26T08:27:21.768Z,24.37
2017-08-26T08:28:21.990Z,24.26
2017-08-26T08:29:21.740Z,24.34
2017-08-26T08:30:21.643Z,24.42
2017-08-26T08:31:21.714Z,24.47
2017-08-26T08:32:21.662Z,24.44
2017-08-26T08:33:21.615Z,24.52
2017-08-26T08:34:21.621Z,24.50
2017-08-26T08:35:21.637Z,24.42
2017-08-26T08:36:21.634Z,24.61
2017-08-26T08:37:21.632Z,24.63
2017-08-26T08:38:21.618Z,24.71
2017-08-26T08:39:21.579Z,24.57
2017-08-26T08:40:21.601Z,24.77
2017-08-26T08:41:21.605Z,24.73
2017-08-26T08:42:21.592Z,24.88
2017-08-26T08:43:21.567Z,24.90
2017-08-26T08:44:21.755Z,24.88
2017-08-26T08:45:21.717Z,24.94
2017-08-26T08:46:21.538Z,25.01
2017-08-26T08:47:21.611Z,25.06
2017-08-26T08:48:21.489Z,25.01
2017-08-26T08:49:21.523Z,24.94
2017-08-26T08:50:21.485Z,25.06
2017-08-26T08:51:21.529Z,25.12
2017-08-26T08:52:21.468Z,25.10
2017-08-26T08:53:21.513Z,25.09
2017-08-26T08:54:21.454Z,25.20
2017-08-26T08:55:21.404Z,25.22
2017-08-26T08:56:21.410Z,25.25
2017-08-26T08:57:21.574Z,25.20
2017-08-26T08:58:21.360Z,25.27
2017-08-26T08:59:21.356Z,25.31
2017-08-26T09:00:21.363Z,25.35
2017-08-26T09:01:21.344Z,25.38
2017-08-26T09:02:21.314Z,25.35
2017-08-26T09:03:21.318Z,25.34
2017-08-26T09:04:21.315Z,25.42
2017-08-26T09:05:21.321Z,25.52
2017-08-26T09:06:21.290Z,25.56
2017-08-26T09:07:21.302Z,25.53
2017-08-26T09:08:21.289Z,25.67
2017-08-26T09:09:21.267Z,25.61
2017-08-26T09:10:21.280Z,25.65
2017-08-26T09:11:21.225Z,25.71
2017-08-26T09:12:21.213Z,25.75
2017-08-26T09:13:21.312Z,25.89
2017-08-26T09:14:21.239Z,25.89
2017-08-26T09:15:21.200Z,25.90
2017-08-26T09:16:21.238Z,25.97
2017-08-26T09:17:21.203Z,25.98
2017-08-26T09:18:21.183Z,26.02
2017-08-26T09:19:21.385Z,26.05
2017-08-26T09:20:21.186Z,26.18
2017-08-26T09:21:21.186Z,26.11
2017-08-26T09:22:21.222Z,26.20
2017-08-26T09:23:21.225Z,26.32
2017-08-26T09:24:21.131Z,26.21
2017-08-26T09:25:21.177Z,26.29
2017-08-26T09:26:21.108Z,26.31
2017-08-26T09:27:21.099Z,26.32
2017-08-26T09:28:21.107Z,26.36
2017-08-26T09:29:21.099Z,26.47
2017-08-26T09:30:21.092Z,26.54
2017-08-26T09:31:21.073Z,26.49
2017-08-26T09:32:21.066Z,26.59
2017-08-26T09:33:21.043Z,26.67
2017-08-26T09:34:21.051Z,26.72
2017-08-26T09:35:21.015Z,26.76
2017-08-26T09:36:21.038Z,26.84
2017-08-26T09:37:21.056Z,27.05
2017-08-26T09:38:21.047Z,26.94
2017-08-26T09:39:21.002Z,27.05
2017-08-26T09:40:21.009Z,27.06
2017-08-26T09:41:20.958Z,27.06
2017-08-26T09:42:20.945Z,27.19
2017-08-26T09:43:21.008Z,27.16
2017-08-26T09:44:21.053Z,27.26
2017-08-26T09:45:20.960Z,27.29
2017-08-26T09:46:20.913Z,27.41
2017-08-26T09:47:20.921Z,27.48
2017-08-26T09:48:20.980Z,27.43
2017-08-26T09:49:20.878Z,27.53
2017-08-26T09:50:20.894Z,27.53
2017-08-26T09:51:20.907Z,27.64
2017-08-26T09:52:20.909Z,27.67
2017-08-26T09:53:20.874Z,27.79
2017-08-26T09:54:20.894Z,27.77
2017-08-26T09:55:20.863Z,27.86
2017-08-26T09:56:20.844Z,27.92
2017-08-26T09:57:20.864Z,27.94
2017-08-26T09:58:20.839Z,28.01
2017-08-26T09:59:20.817Z,27.99
2017-08-26T10:00:20.824Z,28.04
2017-08-26T10:01:20.871Z,28.11
2017-08-26T10:02:20.808Z,28.09
2017-08-26T10:03:20.785Z,28.17
2017-08-26T10:04:20.761Z,28.28
2017-08-26T10:05:20.783Z,28.35
2017-08-26T10:06:20.762Z,28.38
2017-08-26T10:07:20.752Z,28.41
2017-08-26T10:08:20.736Z,28.46
2017-08-26T10:09:20.789Z,28.59
2017-08-26T10:10:20.717Z,28.60
2017-08-26T10:11:20.700Z,28.63
2017-08-26T10:12:20.710Z,28.66
2017-08-26T10:13:20.788Z,28.81
2017-08-26T10:14:20.746Z,28.75
2017-08-26T10:15:20.717Z,28.87
2017-08-26T10:16:20.703Z,29.01
2017-08-26T10:17:20.653Z,28.91
2017-08-26T10:18:20.687Z,28.96
2017-08-26T10:19:20.646Z,29.03
2017-08-26T10:20:20.675Z,29.10
2017-08-26T10:21:20.634Z,29.11
2017-08-26T10:22:20.655Z,29.15
2017-08-26T10:23:20.618Z,29.19
2017-08-26T10:24:20.628Z,29.34
2017-08-26T10:25:20.651Z,29.35
2017-08-26T10:26:20.625Z,29.52
2017-08-26T10:27:20.643Z,29.53
2017-08-26T10:28:20.576Z,29.57
2017-08-26T10:29:20.607Z,29.74
2017-08-26T10:30:20.643Z,29.84
2017-08-26T10:31:20.564Z,29.82
2017-08-26T10:32:20.556Z,29.86
2017-08-26T10:33:20.567Z,29.97
2017-08-26T10:34:20.543Z,30.05
2017-08-26T10:35:20.546Z,30.12
2017-08-26T10:36:20.542Z,30.14
2017-08-26T10:37:20.507Z,30.31
2017-08-26T10:38:20.494Z,30.34
2017-08-26T10:39:20.513Z,30.53
2017-08-26T10:40:20.477Z,30.67
2017-08-26T10:41:20.515Z,30.75
2017-08-26T10:42:20.474Z,30.90
2017-08-26T10:43:20.473Z,31.04
2017-08-26T10:44:20.547Z,31.05
2017-08-26T10:45:20.458Z,31.20
2017-08-26T10:46:20.496Z,31.30
2017-08-26T10:47:20.437Z,31.39
2017-08-26T10:48:20.525Z,31.48
2017-08-26T10:49:20.445Z,31.58
2017-08-26T10:50:20.429Z,31.62
2017-08-26T10:51:20.413Z,31.68
2017-08-26T10:52:20.429Z,31.79
2017-08-26T10:53:20.378Z,31.80
2017-08-26T10:54:20.402Z,31.99
2017-08-26T10:55:20.422Z,31.98
2017-08-26T10:56:20.428Z,32.14
2017-08-26T10:57:20.464Z,32.17
2017-08-26T10:58:20.420Z,32.27
2017-08-26T10:59:20.365Z,32.32
2017-08-26T11:00:20.359Z,32.27
2017-08-26T11:01:20.355Z,32.33
2017-08-26T11:02:20.342Z,32.36
2017-08-26T11:03:20.362Z,32.47
2017-08-26T11:04:20.356Z,32.55
2017-08-26T11:05:20.372Z,32.58
2017-08-26T11:06:20.326Z,32.67
2017-08-26T11:07:20.317Z,32.70
2017-08-26T11:08:20.330Z,32.73
2017-08-26T11:09:20.336Z,32.84
2017-08-26T11:10:20.276Z,32.84
2017-08-26T11:11:20.359Z,32.95
2017-08-26T11:12:20.270Z,33.04
2017-08-26T11:13:20.273Z,33.03
2017-08-26T11:14:20.270Z,33.07
2017-08-26T11:15:20.266Z,33.26
2017-08-26T11:16:20.263Z,33.23
2017-08-26T11:17:20.303Z,33.39
2017-08-26T11:18:20.234Z,33.41
2017-08-26T11:19:20.240Z,33.48
2017-08-26T11:20:20.243Z,33.64
2017-08-26T11:21:20.224Z,33.71
2017-08-26T11:22:20.251Z,33.73
2017-08-26T11:23:20.212Z,33.89
2017-08-26T11:24:20.231Z,33.92
2017-08-26T11:25:20.266Z,33.98
2017-08-26T11:26:20.189Z,34.05
2017-08-26T11:27:20.205Z,34.11
2017-08-26T11:28:20.186Z,34.17
2017-08-26T11:29:20.193Z,34.32
2017-08-26T11:30:20.178Z,34.34
2017-08-26T11:31:20.179Z,34.50
2017-08-26T11:32:20.149Z,34.44
2017-08-26T11:33:20.145Z,34.56
2017-08-26T11:34:20.159Z,34.66
2017-08-26T11:35:20.182Z,34.69
2017-08-26T11:36:20.743Z,34.77
2017-08-26T11:37:20.161Z,34.88
2017-08-26T11:38:20.133Z,35.03
2017-08-26T11:39:20.140Z,35.10
2017-08-26T11:40:20.117Z,35.11
2017-08-26T11:41:20.182Z,35.14
2017-08-26T11:42:20.104Z,35.32
2017-08-26T11:43:20.104Z,35.28
2017-08-26T11:44:20.094Z,35.36
2017-08-26T11:45:20.097Z,35.42
2017-08-26T11:46:20.113Z,35.51
2017-08-26T11:47:20.104Z,35.58
2017-08-26T11:48:20.102Z,35.60
2017-08-26T11:49:20.097Z,35.62
2017-08-26T11:50:20.075Z,35.66
2017-08-26T11:51:20.090Z,35.73
2017-08-26T11:52:20.106Z,35.79
2017-08-26T11:53:20.102Z,35.77
2017-08-26T11:54:20.081Z,35.89
2017-08-26T11:55:20.056Z,35.84
2017-08-26T11:56:20.068Z,35.79
2017-08-26T11:57:20.068Z,35.79
2017-08-26T11:58:20.055Z,35.93
2017-08-26T11:59:20.046Z,35.93
2017-08-26T12:00:20.023Z,36.01
2017-08-26T12:01:20.015Z,36.03
2017-08-26T12:02:20.011Z,36.01
2017-08-26T12:03:20.008Z,36.12
2017-08-26T12:04:20.026Z,36.08
2017-08-26T12:05:20.026Z,36.06
2017-08-26T12:06:20.017Z,36.20
2017-08-26T12:07:20.022Z,36.21
2017-08-26T12:08:20.027Z,36.19
2017-08-26T12:09:20.001Z,36.23
2017-08-26T12:10:19.982Z,36.30
2017-08-26T12:11:19.998Z,36.23
2017-08-26T12:12:19.979Z,36.23
2017-08-26T12:13:19.989Z,36.19
2017-08-26T12:14:19.985Z,36.19
2017-08-26T12:15:19.968Z,36.12
2017-08-26T12:16:19.972Z,36.17
2017-08-26T12:17:20.014Z,36.23
2017-08-26T12:18:20.018Z,36.19
2017-08-26T12:19:19.961Z,36.20
2017-08-26T12:20:19.975Z,36.27
2017-08-26T12:21:19.992Z,36.41
2017-08-26T12:22:20.009Z,36.29
2017-08-26T12:23:19.929Z,36.38
2017-08-26T12:24:19.964Z,36.27
2017-08-26T12:25:19.923Z,36.29
2017-08-26T12:26:19.964Z,36.36
2017-08-26T12:27:19.930Z,36.43
2017-08-26T12:28:19.927Z,36.42
2017-08-26T12:29:19.933Z,36.42
2017-08-26T12:30:19.939Z,36.43
2017-08-26T12:31:19.955Z,36.29
2017-08-26T12:32:19.942Z,36.31
2017-08-26T12:33:19.955Z,36.29
2017-08-26T12:34:19.923Z,36.27
2017-08-26T12:35:19.910Z,36.27
2017-08-26T12:36:19.904Z,36.27
2017-08-26T12:37:19.905Z,36.27
2017-08-26T12:38:19.935Z,36.23
2017-08-26T12:39:19.910Z,36.21
2017-08-26T12:40:19.901Z,36.23
2017-08-26T12:41:19.885Z,36.26
2017-08-26T12:42:19.933Z,36.33
2017-08-26T12:43:19.869Z,36.29
2017-08-26T12:44:19.869Z,36.46
2017-08-26T12:45:19.866Z,36.60
2017-08-26T12:46:19.873Z,36.48
2017-08-26T12:47:19.878Z,36.65
2017-08-26T12:48:19.952Z,36.79
2017-08-26T12:49:19.866Z,36.92
2017-08-26T12:50:19.850Z,36.99
2017-08-26T12:51:19.843Z,37.14
2017-08-26T12:52:19.852Z,37.17